Terminal Aerodrome Forecast
Issued by NWS Cleveland, OH

Home | Current Version | Previous Version | Graphics & Text | Print | Product List | Glossary Off
Versions: 1 2 3 4 5 6 7 8 9 10 11 12 13 14 15 16 17 18

000
FTUS41 KCLE 271738
TAFCAK
TAF
KCAK 271738Z 2718/2818 22015G25KT P6SM BKN045
      TEMPO 2722/2801 27020G40KT 2SM TSRA OVC035CB
     FM280100 24008KT P6SM VCSH BKN080
     FM280400 27005KT P6SM BKN120
     FM280900 32003KT 5SM BR SKC
     FM281400 04005KT P6SM SKC=

USA.gov is the U.S. government's official web portal to all federal, state and local government web resources and services.